Time;durP1;ratioP1;P1;durP2;ratioP2;P2;SDS_P1;SDS_P2;PMS_P1;PMS_P2;Temp;Humidity;BMP_temperature;BMP_pressure;BME280_temperature;BME280_humidity;BME280_pressure;Samples;Min_cycle;Max_cycle;Signal;HPM_P1;HPM_P2
2022/07/25 00:04:13;;;;;;;;;;;;;;;;;;10498697;28;19925;-67
2022/07/25 00:09:15;;;;;;;;;;;;;;;;;;10498506;28;19924;-67
2022/07/25 00:14:17;;;;;;;;;;;;;;;;;;10503438;22;19943;-63
2022/07/25 00:19:19;;;;;;;;;;;;;;;;;;10506988;28;19932;-63
2022/07/25 00:24:21;;;;;;;;;;;;;;;;;;10506131;28;20401;-64
2022/07/25 00:29:23;;;;;;;;;;;;;;;;;;10506443;28;19925;-63
2022/07/25 00:34:25;;;;;;;;;;;;;;;;;;10506338;28;19925;-63
2022/07/25 00:39:27;;;;;;;;;;;;;;;;;;10506151;28;19925;-63
2022/07/25 00:44:29;;;;;;;;;;;;;;;;;;10505326;28;19924;-63
2022/07/25 00:49:31;;;;;;;;;;;;;;;;;;10504993;28;20256;-63
2022/07/25 00:54:33;;;;;;;;;;;;;;;;;;10504806;28;19925;-63
2022/07/25 00:59:36;;;;;;;;;;;;;;;;;;10504648;28;20291;-63
2022/07/25 01:04:38;;;;;;;;;;;;;;;;;;10496234;28;19929;-63
2022/07/25 01:09:40;;;;;;;;;;;;;;;;;;10504782;28;19924;-63
2022/07/25 01:14:42;;;;;;;;;;;;;;;;;;10504316;28;19932;-63
2022/07/25 01:19:45;;;;;;;;;;;;;;;;;;10504587;28;19931;-63
2022/07/25 01:24:47;;;;;;;;;;;;;;;;;;10502576;28;19947;-63
2022/07/25 01:29:49;;;;;;;;;;;;;;;;;;10503450;28;20394;-63
2022/07/25 01:34:51;;;;;;;;;;;;;;;;;;10504022;28;19925;-63
2022/07/25 01:39:53;;;;;;;;;;;;;;;;;;10503194;28;19924;-63
2022/07/25 01:44:55;;;;;;;;;;;;;;;;;;10503071;28;19924;-63
2022/07/25 01:49:57;;;;;;;;;;;;;;;;;;10503403;28;19924;-63
2022/07/25 01:54:59;;;;;;;;;;;;;;;;;;10502606;28;20283;-63
2022/07/25 02:00:01;;;;;;;;;;;;;;;;;;10503008;28;19938;-63
2022/07/25 02:05:03;;;;;;;;;;;;;;;;;;10502815;28;19931;-63
2022/07/25 02:10:05;;;;;;;;;;;;;;;;;;10502633;28;19968;-63
2022/07/25 02:15:08;;;;;;;;;;;;;;;;;;10501992;28;19928;-63
2022/07/25 02:20:10;;;;;;;;;;;;;;;;;;10501599;28;19932;-63
2022/07/25 02:25:12;;;;;;;;;;;;;;;;;;10501383;28;20379;-63
2022/07/25 02:30:14;;;;;;;;;;;;;;;;;;10501091;28;19924;-63
2022/07/25 02:35:16;;;;;;;;;;;;;;;;;;10501349;28;19925;-63
2022/07/25 02:40:18;;;;;;;;;;;;;;;;;;10496832;28;19928;-63
2022/07/25 02:45:20;;;;;;;;;;;;;;;;;;10501150;28;19931;-63
2022/07/25 02:50:22;;;;;;;;;;;;;;;;;;10500878;28;19932;-63
2022/07/25 02:55:24;;;;;;;;;;;;;;;;;;10500101;28;20351;-63
2022/07/25 03:00:26;;;;;;;;;;;;;;;;;;10500550;28;19931;-63
2022/07/25 03:05:28;;;;;;;;;;;;;;;;;;10499678;28;20041;-63
2022/07/25 03:10:30;;;;;;;;;;;;;;;;;;10500412;28;19924;-63
2022/07/25 03:15:32;;;;;;;;;;;;;;;;;;10499442;28;19931;-63
2022/07/25 03:20:34;;;;;;;;;;;;;;;;;;10499891;28;19924;-63
2022/07/25 03:25:36;;;;;;;;;;;;;;;;;;10499041;28;20287;-63
2022/07/25 03:30:39;;;;;;;;;;;;;;;;;;10499418;28;19928;-63
2022/07/25 03:35:41;;;;;;;;;;;;;;;;;;10498775;28;19924;-63
2022/07/25 03:40:43;;;;;;;;;;;;;;;;;;10498585;28;19925;-63
2022/07/25 03:45:45;;;;;;;;;;;;;;;;;;10499074;28;19925;-63
2022/07/25 03:50:48;;;;;;;;;;;;;;;;;;10497671;28;20302;-63
2022/07/25 03:55:50;;;;;;;;;;;;;;;;;;10498278;28;19924;-63
2022/07/25 04:00:52;;;;;;;;;;;;;;;;;;10498207;28;20371;-63
2022/07/25 04:05:54;;;;;;;;;;;;;;;;;;10498105;28;19974;-63
2022/07/25 04:10:56;;;;;;;;;;;;;;;;;;10498568;28;19925;-63
2022/07/25 04:15:58;;;;;;;;;;;;;;;;;;10497728;28;19932;-63
2022/07/25 04:21:00;;;;;;;;;;;;;;;;;;10497697;28;20367;-63
2022/07/25 04:26:02;;;;;;;;;;;;;;;;;;10497661;28;20484;-63
2022/07/25 04:31:04;;;;;;;;;;;;;;;;;;10498083;28;19925;-63
2022/07/25 04:36:06;;;;;;;;;;;;;;;;;;10498125;28;19931;-63
2022/07/25 04:41:08;;;;;;;;;;;;;;;;;;10497340;28;19929;-63
2022/07/25 04:46:10;;;;;;;;;;;;;;;;;;10493023;28;19924;-63
2022/07/25 04:51:13;;;;;;;;;;;;;;;;;;10497623;28;19924;-63
2022/07/25 04:56:15;;;;;;;;;;;;;;;;;;10497701;28;19925;-63
2022/07/25 05:01:17;;;;;;;;;;;;;;;;;;10502570;28;19947;-63
2022/07/25 05:06:19;;;;;;;;;;;;;;;;;;10504470;28;19933;-63
2022/07/25 05:11:21;;;;;;;;;;;;;;;;;;10504149;28;19924;-63
2022/07/25 05:16:23;;;;;;;;;;;;;;;;;;10503902;28;20370;-63
2022/07/25 05:21:26;;;;;;;;;;;;;;;;;;10504510;28;19995;-63
2022/07/25 05:26:28;;;;;;;;;;;;;;;;;;10504377;28;20144;-63
2022/07/25 05:31:30;;;;;;;;;;;;;;;;;;10504094;28;19925;-63
2022/07/25 05:36:32;;;;;;;;;;;;;;;;;;10503302;28;20333;-64
2022/07/25 05:41:34;;;;;;;;;;;;;;;;;;10503140;28;19947;-63
2022/07/25 05:46:37;;;;;;;;;;;;;;;;;;10503624;28;19925;-63
2022/07/25 05:51:39;;;;;;;;;;;;;;;;;;10503317;28;19986;-63
2022/07/25 05:56:41;;;;;;;;;;;;;;;;;;10503245;28;19924;-63
2022/07/25 06:01:43;;;;;;;;;;;;;;;;;;10502376;28;20371;-63
2022/07/25 06:06:50;;;;;;;;;;;;;;;;;;10502198;28;20558;-63
2022/07/25 06:11:52;;;;;;;;;;;;;;;;;;10501326;28;20272;-63
2022/07/25 06:17:00;;;;;;;;;;;;;;;;;;10501739;28;19925;-63
2022/07/25 06:22:03;;;;;;;;;;;;;;;;;;10502188;28;19925;-63
2022/07/25 06:27:05;;;;;;;;;;;;;;;;;;10501287;28;19925;-63
2022/07/25 06:32:07;;;;;;;;;;;;;;;;;;10501050;28;19928;-63
2022/07/25 06:37:09;;;;;;;;;;;;;;;;;;10501549;28;19929;-63
2022/07/25 06:42:11;;;;;;;;;;;;;;;;;;10501278;28;19924;-63
2022/07/25 06:47:13;;;;;;;;;;;;;;;;;;10500437;28;20256;-63
2022/07/25 06:52:15;;;;;;;;;;;;;;;;;;10500173;28;19932;-63
2022/07/25 06:57:17;;;;;;;;;;;;;;;;;;10500691;28;19924;-63
2022/07/25 07:02:19;;;;;;;;;;;;;;;;;;10499839;28;20427;-63
2022/07/25 07:07:21;;;;;;;;;;;;;;;;;;10500258;28;19924;-63
2022/07/25 07:12:23;;;;;;;;;;;;;;;;;;10499402;28;19957;-63
2022/07/25 07:17:26;;;;;;;;;;;;;;;;;;10499170;28;20387;-63
2022/07/25 07:22:28;;;;;;;;;;;;;;;;;;10498263;28;19924;-63
2022/07/25 07:27:30;;;;;;;;;;;;;;;;;;10499614;28;19931;-63
2022/07/25 07:32:32;;;;;;;;;;;;;;;;;;10499387;28;19924;-63
2022/07/25 07:37:34;;;;;;;;;;;;;;;;;;10498705;28;20269;-63
2022/07/25 07:42:41;;;;;;;;;;;;;;;;;;10499290;28;19930;-63
2022/07/25 07:47:43;;;;;;;;;;;;;;;;;;10498511;28;19947;-63
2022/07/25 07:52:45;;;;;;;;;;;;;;;;;;10498929;28;19924;-63
2022/07/25 07:57:48;;;;;;;;;;;;;;;;;;10498255;28;19924;-63
2022/07/25 08:02:50;;;;;;;;;;;;;;;;;;10498135;28;20371;-63
2022/07/25 08:07:52;;;;;;;;;;;;;;;;;;10498584;28;19925;-63
2022/07/25 08:12:54;;;;;;;;;;;;;;;;;;10498443;28;19925;-64
2022/07/25 08:17:56;;;;;;;;;;;;;;;;;;10497789;28;19924;-63
2022/07/25 08:22:58;;;;;;;;;;;;;;;;;;10497770;28;20375;-63
2022/07/25 08:28:01;;;;;;;;;;;;;;;;;;10497575;28;19924;-63
2022/07/25 08:33:03;;;;;;;;;;;;;;;;;;10498805;28;19925;-64
2022/07/25 08:38:05;;;;;;;;;;;;;;;;;;10506264;28;19924;-64
2022/07/25 08:43:07;;;;;;;;;;;;;;;;;;10505410;28;19948;-64
2022/07/25 08:48:09;;;;;;;;;;;;;;;;;;10505171;28;19932;-63
2022/07/25 08:53:11;;;;;;;;;;;;;;;;;;10505652;28;19924;-64
2022/07/25 08:58:33;;;;;;;;;;;;;;;;;;10504719;28;19924;-64
2022/07/25 09:03:35;;;;;;;;;;;;;;;;;;10505213;28;19925;-64
2022/07/25 09:08:37;;;;;;;;;;;;;;;;;;10505007;28;19974;-63
2022/07/25 09:13:40;;;;;;;;;;;;;;;;;;10494882;28;19928;-64
2022/07/25 09:18:44;;;;;;;;;;;;;;;;;;10495914;28;19925;-63
2022/07/25 09:23:46;;;;;;;;;;;;;;;;;;10504104;28;19999;-63
2022/07/25 09:28:48;;;;;;;;;;;;;;;;;;10503632;28;20390;-63
2022/07/25 09:33:50;;;;;;;;;;;;;;;;;;10504178;28;19924;-64
2022/07/25 09:38:52;;;;;;;;;;;;;;;;;;10503385;28;19925;-64
2022/07/25 09:43:55;;;;;;;;;;;;;;;;;;10503113;28;20283;-63
2022/07/25 09:48:57;;;;;;;;;;;;;;;;;;10501968;28;19925;-64
2022/07/25 09:53:59;;;;;;;;;;;;;;;;;;10503355;28;20098;-63
2022/07/25 09:59:01;;;;;;;;;;;;;;;;;;10503170;28;19931;-64
2022/07/25 10:04:03;;;;;;;;;;;;;;;;;;10502963;28;19924;-65
2022/07/25 10:09:05;;;;;;;;;;;;;;;;;;10502700;28;19928;-64
2022/07/25 10:14:08;;;;;;;;;;;;;;;;;;10502277;28;19929;-64
2022/07/25 10:19:10;;;;;;;;;;;;;;;;;;10502319;28;19925;-62
2022/07/25 10:24:12;;;;;;;;;;;;;;;;;;10501491;28;20351;-64
2022/07/25 10:29:14;;;;;;;;;;;;;;;;;;10501819;28;19954;-64
2022/07/25 10:34:16;;;;;;;;;;;;;;;;;;10501131;28;19924;-63
2022/07/25 10:39:20;;;;;;;;;;;;;;;;;;10497795;28;19931;-64
2022/07/25 10:44:22;;;;;;;;;;;;;;;;;;10500649;28;19931;-63
2022/07/25 10:49:24;;;;;;;;;;;;;;;;;;10501005;28;19995;-64
2022/07/25 10:54:33;;;;;;;;;;;;;;;;;;10500278;28;20399;-63
2022/07/25 10:59:35;;;;;;;;;;;;;;;;;;10499869;28;19924;-63
2022/07/25 11:04:37;;;;;;;;;;;;;;;;;;10500493;28;19924;-63
2022/07/25 11:09:39;;;;;;;;;;;;;;;;;;10499611;28;19935;-63
2022/07/25 11:14:41;;;;;;;;;;;;;;;;;;10490481;28;19931;-63
2022/07/25 11:19:44;;;;;;;;;;;;;;;;;;10499927;28;19932;-63
2022/07/25 11:24:46;;;;;;;;;;;;;;;;;;10499725;28;19931;-63
2022/07/25 11:29:48;;;;;;;;;;;;;;;;;;10499737;28;19931;-64
2022/07/25 11:34:50;;;;;;;;;;;;;;;;;;10498858;28;19952;-63
2022/07/25 11:39:52;;;;;;;;;;;;;;;;;;10499361;28;19964;-63
2022/07/25 11:44:54;;;;;;;;;;;;;;;;;;10498571;28;20280;-63
2022/07/25 11:49:56;;;;;;;;;;;;;;;;;;10499051;28;19925;-63
2022/07/25 11:54:58;;;;;;;;;;;;;;;;;;10498993;28;19932;-63
2022/07/25 12:00:01;;;;;;;;;;;;;;;;;;10498264;28;19946;-63
2022/07/25 12:05:03;;;;;;;;;;;;;;;;;;10498129;28;20437;-63
2022/07/25 12:10:05;;;;;;;;;;;;;;;;;;10497999;28;19924;-63
2022/07/25 12:15:07;;;;;;;;;;;;;;;;;;10497991;28;19924;-64
2022/07/25 12:20:09;;;;;;;;;;;;;;;;;;10498480;28;19935;-63
2022/07/25 12:25:12;;;;;;;;;;;;;;;;;;10498318;28;19977;-63
2022/07/25 12:30:14;;;;;;;;;;;;;;;;;;10512333;22;20395;-59
2022/07/25 12:35:16;;;;;;;;;;;;;;;;;;10497573;28;20375;-59
2022/07/25 12:40:18;;;;;;;;;;;;;;;;;;10498089;28;19924;-59
2022/07/25 12:45:21;;;;;;;;;;;;;;;;;;10498060;28;19925;-59
2022/07/25 12:50:24;;;;;;;;;;;;;;;;;;10497229;28;20271;-59
2022/07/25 12:55:27;;;;;;;;;;;;;;;;;;10497823;28;19936;-59
2022/07/25 13:00:29;;;;;;;;;;;;;;;;;;10497081;28;20286;-59
2022/07/25 13:05:31;;;;;;;;;;;;;;;;;;10497571;28;19924;-59
2022/07/25 13:10:33;;;;;;;;;;;;;;;;;;10497188;28;19924;-60
2022/07/25 13:15:35;;;;;;;;;;;;;;;;;;10497191;28;19946;-60
2022/07/25 13:20:38;;;;;;;;;;;;;;;;;;10498835;28;19925;-60
2022/07/25 13:25:40;;;;;;;;;;;;;;;;;;10504542;28;20011;-60
2022/07/25 13:30:42;;;;;;;;;;;;;;;;;;10503717;28;19925;-59
2022/07/25 13:35:44;;;;;;;;;;;;;;;;;;10495710;28;19925;-60
2022/07/25 13:40:46;;;;;;;;;;;;;;;;;;10503982;28;19929;-60
2022/07/25 13:45:48;;;;;;;;;;;;;;;;;;10503335;28;20267;-60
2022/07/25 13:50:50;;;;;;;;;;;;;;;;;;10502827;28;19924;-60
2022/07/25 13:55:52;;;;;;;;;;;;;;;;;;10503420;28;19924;-60
2022/07/25 14:00:54;;;;;;;;;;;;;;;;;;10503235;28;19925;-60
2022/07/25 14:05:56;;;;;;;;;;;;;;;;;;10503020;28;19932;-60
2022/07/25 14:10:59;;;;;;;;;;;;;;;;;;10502739;28;19931;-60
2022/07/25 14:16:01;;;;;;;;;;;;;;;;;;10501989;28;20272;-60
2022/07/25 14:21:03;;;;;;;;;;;;;;;;;;10501749;28;20379;-60
2022/07/25 14:26:05;;;;;;;;;;;;;;;;;;10502149;28;19925;-60
2022/07/25 14:31:07;;;;;;;;;;;;;;;;;;10500870;28;19928;-60
2022/07/25 14:36:09;;;;;;;;;;;;;;;;;;10501828;28;19967;-60
2022/07/25 14:41:11;;;;;;;;;;;;;;;;;;10496211;28;19928;-60
2022/07/25 14:46:14;;;;;;;;;;;;;;;;;;10500728;28;19928;-60
2022/07/25 14:51:16;;;;;;;;;;;;;;;;;;10500405;28;19971;-60
2022/07/25 14:56:18;;;;;;;;;;;;;;;;;;10500955;28;19924;-60
2022/07/25 15:01:23;;;;;;;;;;;;;;;;;;10497318;28;19924;-60
2022/07/25 15:06:26;;;;;;;;;;;;;;;;;;10500603;28;19932;-60
2022/07/25 15:11:30;;;;;;;;;;;;;;;;;;10499602;28;19925;-60
2022/07/25 15:16:32;;;;;;;;;;;;;;;;;;10499529;28;20385;-60
2022/07/25 15:21:34;;;;;;;;;;;;;;;;;;10499362;28;20387;-60
2022/07/25 15:26:36;;;;;;;;;;;;;;;;;;10499819;28;19931;-60
2022/07/25 15:31:38;;;;;;;;;;;;;;;;;;10498785;28;19932;-60
2022/07/25 15:36:41;;;;;;;;;;;;;;;;;;10499368;28;19970;-60
2022/07/25 15:41:43;;;;;;;;;;;;;;;;;;10498732;28;19947;-60
2022/07/25 15:46:45;;;;;;;;;;;;;;;;;;10498029;28;19924;-60
2022/07/25 15:51:47;;;;;;;;;;;;;;;;;;10498860;28;19929;-60
2022/07/25 15:56:49;;;;;;;;;;;;;;;;;;10498369;28;19925;-60
2022/07/25 16:01:51;;;;;;;;;;;;;;;;;;10490770;28;19979;-60
2022/07/25 16:06:54;;;;;;;;;;;;;;;;;;10498146;28;20359;-60
2022/07/25 16:11:56;;;;;;;;;;;;;;;;;;10498652;28;19924;-60
2022/07/25 16:16:58;;;;;;;;;;;;;;;;;;10498026;28;20267;-60
2022/07/25 16:22:00;;;;;;;;;;;;;;;;;;10497895;28;19925;-60
2022/07/25 16:27:02;;;;;;;;;;;;;;;;;;10498494;28;19963;-60
2022/07/25 16:32:04;;;;;;;;;;;;;;;;;;10497981;28;19932;-60
2022/07/25 16:37:06;;;;;;;;;;;;;;;;;;10498231;28;19931;-60
2022/07/25 16:42:08;;;;;;;;;;;;;;;;;;10498140;28;19925;-60
2022/07/25 16:47:10;;;;;;;;;;;;;;;;;;10497790;28;19925;-60
2022/07/25 16:52:12;;;;;;;;;;;;;;;;;;10497819;28;19924;-60
2022/07/25 16:57:15;;;;;;;;;;;;;;;;;;10503415;28;19925;-60
2022/07/25 17:02:17;;;;;;;;;;;;;;;;;;10504769;28;20283;-60
2022/07/25 17:07:19;;;;;;;;;;;;;;;;;;10505287;28;19928;-60
2022/07/25 17:12:21;;;;;;;;;;;;;;;;;;10505025;28;19932;-60
2022/07/25 17:17:23;;;;;;;;;;;;;;;;;;10504207;28;20363;-60
2022/07/25 17:22:25;;;;;;;;;;;;;;;;;;10504744;28;19931;-60
2022/07/25 17:27:27;;;;;;;;;;;;;;;;;;10504684;28;19936;-60
2022/07/25 17:32:29;;;;;;;;;;;;;;;;;;10501339;28;19925;-60
2022/07/25 17:37:32;;;;;;;;;;;;;;;;;;10504208;28;19932;-60
2022/07/25 17:42:34;;;;;;;;;;;;;;;;;;10503992;28;19925;-60
2022/07/25 17:47:36;;;;;;;;;;;;;;;;;;10503931;28;19924;-60
2022/07/25 17:52:38;;;;;;;;;;;;;;;;;;10503479;28;19928;-59
2022/07/25 17:57:41;;;;;;;;;;;;;;;;;;10502734;28;20283;-59
2022/07/25 18:02:43;;;;;;;;;;;;;;;;;;10494928;28;19930;-60
2022/07/25 18:07:48;;;;;;;;;;;;;;;;;;10502340;28;19928;-59
2022/07/25 18:12:50;;;;;;;;;;;;;;;;;;10502699;28;19924;-60
2022/07/25 18:17:52;;;;;;;;;;;;;;;;;;10495277;28;19925;-59
2022/07/25 18:22:54;;;;;;;;;;;;;;;;;;10501770;28;20287;-59
2022/07/25 18:27:56;;;;;;;;;;;;;;;;;;10501340;28;20283;-60
2022/07/25 18:32:58;;;;;;;;;;;;;;;;;;10501308;28;19936;-59
2022/07/25 18:38:00;;;;;;;;;;;;;;;;;;10502082;28;19940;-59
2022/07/25 18:43:04;;;;;;;;;;;;;;;;;;10500824;28;20206;-59
2022/07/25 18:48:09;;;;;;;;;;;;;;;;;;10500703;28;20402;-60
2022/07/25 18:53:11;;;;;;;;;;;;;;;;;;10501202;28;19928;-59
2022/07/25 18:58:14;;;;;;;;;;;;;;;;;;10501111;28;19932;-59
2022/07/25 19:03:16;;;;;;;;;;;;;;;;;;10500795;28;19932;-59
2022/07/25 19:08:19;;;;;;;;;;;;;;;;;;10500588;28;19935;-60
2022/07/25 19:13:21;;;;;;;;;;;;;;;;;;10500297;28;19925;-60
2022/07/25 19:18:43;;;;;;;;;;;;;;;;;;10500071;28;19970;-59
2022/07/25 19:23:45;;;;;;;;;;;;;;;;;;10499943;28;19924;-59
2022/07/25 19:28:51;;;;;;;;;;;;;;;;;;10498990;28;19948;-59
2022/07/25 19:33:54;;;;;;;;;;;;;;;;;;10491812;28;20278;-60
2022/07/25 19:38:56;;;;;;;;;;;;;;;;;;10499457;28;19924;-59
2022/07/25 19:43:58;;;;;;;;;;;;;;;;;;10499332;28;19925;-59
2022/07/25 19:49:00;;;;;;;;;;;;;;;;;;10499286;28;19924;-60
2022/07/25 19:54:02;;;;;;;;;;;;;;;;;;10498297;28;20414;-59
2022/07/25 19:59:04;;;;;;;;;;;;;;;;;;10499086;28;19955;-59
2022/07/25 20:04:07;;;;;;;;;;;;;;;;;;10498241;28;19925;-59
2022/07/25 20:09:10;;;;;;;;;;;;;;;;;;10498841;28;19925;-59
2022/07/25 20:14:12;;;;;;;;;;;;;;;;;;10498597;28;19978;-59
2022/07/25 20:19:14;;;;;;;;;;;;;;;;;;10498580;28;19932;-59
2022/07/25 20:24:16;;;;;;;;;;;;;;;;;;10498488;28;19925;-59
2022/07/25 20:29:22;;;;;;;;;;;;;;;;;;10499726;28;19925;-59
2022/07/25 20:34:24;;;;;;;;;;;;;;;;;;10506601;28;19931;-59
2022/07/25 20:39:26;;;;;;;;;;;;;;;;;;10506485;28;19924;-59
2022/07/25 20:44:29;;;;;;;;;;;;;;;;;;10506252;28;19928;-59
2022/07/25 20:49:31;;;;;;;;;;;;;;;;;;10505451;28;20382;-59
2022/07/25 20:54:33;;;;;;;;;;;;;;;;;;10505684;28;19925;-59
2022/07/25 20:59:35;;;;;;;;;;;;;;;;;;10505603;28;19932;-59
2022/07/25 21:04:37;;;;;;;;;;;;;;;;;;10505898;28;19924;-60
2022/07/25 21:09:39;;;;;;;;;;;;;;;;;;10504479;28;19924;-59
2022/07/25 21:14:42;;;;;;;;;;;;;;;;;;10504834;28;20402;-59
2022/07/25 21:19:44;;;;;;;;;;;;;;;;;;10504158;28;20363;-59
2022/07/25 21:24:48;;;;;;;;;;;;;;;;;;10504842;28;19924;-59
2022/07/25 21:29:50;;;;;;;;;;;;;;;;;;10504550;28;19925;-60
2022/07/25 21:34:52;;;;;;;;;;;;;;;;;;10504459;28;19925;-59
2022/07/25 21:39:54;;;;;;;;;;;;;;;;;;10503227;28;20310;-60
2022/07/25 21:44:56;;;;;;;;;;;;;;;;;;10502341;28;20261;-60
2022/07/25 21:55:25;;;;;;;;;;;;;;;;;;10503774;28;19928;-59
2022/07/25 22:00:27;;;;;;;;;;;;;;;;;;10503170;28;19928;-60
2022/07/25 22:05:30;;;;;;;;;;;;;;;;;;10503174;28;19928;-60
2022/07/25 22:10:32;;;;;;;;;;;;;;;;;;10502893;28;19931;-59
2022/07/25 22:15:34;;;;;;;;;;;;;;;;;;10502700;28;19931;-59
2022/07/25 22:20:36;;;;;;;;;;;;;;;;;;10502763;28;19925;-60
2022/07/25 22:25:39;;;;;;;;;;;;;;;;;;10502490;28;19935;-59
2022/07/25 22:30:41;;;;;;;;;;;;;;;;;;10501776;28;19924;-60
2022/07/25 22:35:43;;;;;;;;;;;;;;;;;;10502907;28;19930;-59
2022/07/25 22:40:45;;;;;;;;;;;;;;;;;;10501905;28;19931;-60
2022/07/25 22:45:47;;;;;;;;;;;;;;;;;;10492827;28;20287;-59
2022/07/25 22:50:49;;;;;;;;;;;;;;;;;;10500476;28;19932;-59
2022/07/25 22:55:51;;;;;;;;;;;;;;;;;;10500024;28;20265;-60
2022/07/25 23:00:53;;;;;;;;;;;;;;;;;;10500808;28;19924;-59
2022/07/25 23:05:56;;;;;;;;;;;;;;;;;;10499959;28;20367;-59
2022/07/25 23:10:58;;;;;;;;;;;;;;;;;;10499734;28;19925;-59
2022/07/25 23:16:00;;;;;;;;;;;;;;;;;;10499538;28;19935;-60
2022/07/25 23:21:04;;;;;;;;;;;;;;;;;;10499433;28;19947;-59
2022/07/25 23:26:06;;;;;;;;;;;;;;;;;;10499205;28;20377;-59
2022/07/25 23:31:08;;;;;;;;;;;;;;;;;;10527355;28;19928;-60
2022/07/25 23:36:10;;;;;;;;;;;;;;;;;;10535981;28;20371;-59
2022/07/25 23:41:12;;;;;;;;;;;;;;;;;;10540643;28;20369;-60
2022/07/25 23:46:14;;;;;;;;;;;;;;;;;;10540568;28;19923;-59
2022/07/25 23:51:16;;;;;;;;;;;;;;;;;;10541442;28;19931;-59
2022/07/25 23:56:18;;;;;;;;;;;;;;;;;;10540854;28;19931;-59
